Time;durP1;ratioP1;P1;durP2;ratioP2;P2;SDS_P1;SDS_P2;PMS_P1;PMS_P2;Temp;Humidity;BMP_temperature;BMP_pressure;BME280_temperature;BME280_humidity;BME280_pressure;Samples;Min_cycle;Max_cycle;Signal;HPM_P1;HPM_P2
2022/05/13 00:01:49;;;;;;;6.05;1.48;;;;;;;;;;5007800;28;20804;-69
2022/05/13 00:04:14;;;;;;;6.35;1.58;;;;;;;;;;5005685;28;20524;-69
2022/05/13 00:06:39;;;;;;;5.30;1.77;;;;;;;;;;5007670;28;20593;-69
2022/05/13 00:09:05;;;;;;;3.95;1.23;;;;;;;;;;5005891;28;20029;-69
2022/05/13 00:11:30;;;;;;;4.18;1.30;;;;;;;;;;5008050;28;20046;-69
2022/05/13 00:13:56;;;;;;;4.68;1.55;;;;;;;;;;5006191;28;20092;-68
2022/05/13 00:16:22;;;;;;;5.53;1.35;;;;;;;;;;5004646;28;20046;-68
2022/05/13 00:18:47;;;;;;;5.72;1.23;;;;;;;;;;5002204;28;20037;-69
2022/05/13 00:21:13;;;;;;;3.78;1.33;;;;;;;;;;5006007;28;20057;-69
2022/05/13 00:23:39;;;;;;;4.10;1.20;;;;;;;;;;5004387;28;20037;-69
2022/05/13 00:26:04;;;;;;;4.28;1.60;;;;;;;;;;5003411;28;20041;-69
2022/05/13 00:28:29;;;;;;;8.57;1.65;;;;;;;;;;5006718;28;20419;-69
2022/05/13 00:30:55;;;;;;;2.40;1.23;;;;;;;;;;5006875;28;20041;-69
2022/05/13 00:33:21;;;;;;;5.00;1.63;;;;;;;;;;5007190;28;20034;-69
2022/05/13 00:35:48;;;;;;;5.47;1.80;;;;;;;;;;4997676;28;20038;-69
2022/05/13 00:38:13;;;;;;;9.25;1.90;;;;;;;;;;5007045;28;20049;-68
2022/05/13 00:40:41;;;;;;;4.43;1.52;;;;;;;;;;5006955;28;20077;-68
2022/05/13 00:43:09;;;;;;;11.27;1.92;;;;;;;;;;5005205;28;20097;-68
2022/05/13 00:45:35;;;;;;;4.60;1.70;;;;;;;;;;5006284;28;20061;-68
2022/05/13 00:48:01;;;;;;;6.38;2.10;;;;;;;;;;5020177;28;20551;-69
2022/05/13 00:50:30;;;;;;;4.18;1.60;;;;;;;;;;5006121;28;20045;-69
2022/05/13 00:52:56;;;;;;;6.57;2.15;;;;;;;;;;5006904;28;20045;-69
2022/05/13 00:55:30;;;;;;;5.05;2.05;;;;;;;;;;5006010;28;20029;-69
2022/05/13 00:57:56;;;;;;;6.60;1.90;;;;;;;;;;5001145;28;20125;-68
2022/05/13 01:00:21;;;;;;;5.65;2.00;;;;;;;;;;5004115;28;20038;-69
2022/05/13 01:02:48;;;;;;;6.35;2.08;;;;;;;;;;5003260;28;20041;-69
2022/05/13 01:05:15;;;;;;;8.38;2.00;;;;;;;;;;5006769;28;20053;-69
2022/05/13 01:07:41;;;;;;;6.05;1.90;;;;;;;;;;5005268;28;20042;-68
2022/05/13 01:10:11;;;;;;;7.25;1.67;;;;;;;;;;5006060;28;20069;-69
2022/05/13 01:12:41;;;;;;;5.68;2.15;;;;;;;;;;5007429;28;20503;-68
2022/05/13 01:15:10;;;;;;;6.40;2.33;;;;;;;;;;4997440;28;20068;-69
2022/05/13 01:20:27;;;;;;;8.63;2.03;;;;;;;;;;4998769;28;20040;-69
2022/05/13 01:23:02;;;;;;;5.93;1.88;;;;;;;;;;5007112;28;20100;-69
2022/05/13 01:25:29;;;;;;;9.02;2.25;;;;;;;;;;5002358;28;20056;-69
2022/05/13 01:28:04;;;;;;;7.22;2.53;;;;;;;;;;5000520;28;20058;-68
2022/05/13 01:30:30;;;;;;;8.27;2.25;;;;;;;;;;5007480;28;20173;-69
2022/05/13 01:32:56;;;;;;;8.38;2.67;;;;;;;;;;5007332;28;20097;-69
2022/05/13 01:35:23;;;;;;;8.65;2.30;;;;;;;;;;5007007;28;20030;-69
2022/05/13 01:37:49;;;;;;;10.05;2.55;;;;;;;;;;5005825;28;20053;-69
2022/05/13 01:40:15;;;;;;;12.65;2.40;;;;;;;;;;4994683;28;20578;-68
2022/05/13 01:42:40;;;;;;;8.68;2.53;;;;;;;;;;5006787;28;20109;-68
2022/05/13 01:45:09;;;;;;;7.43;2.30;;;;;;;;;;5007713;28;20511;-68
2022/05/13 01:47:34;;;;;;;7.20;2.33;;;;;;;;;;5003849;28;20034;-69
2022/05/13 01:50:01;;;;;;;11.90;2.35;;;;;;;;;;5002505;28;20041;-68
2022/05/13 01:52:26;;;;;;;9.85;1.92;;;;;;;;;;5003601;28;20034;-68
2022/05/13 01:54:51;;;;;;;10.82;2.90;;;;;;;;;;5007453;28;20104;-68
2022/05/13 01:57:17;;;;;;;5.38;2.50;;;;;;;;;;5007343;28;20032;-69
2022/05/13 01:59:42;;;;;;;7.72;2.15;;;;;;;;;;5007685;28;20073;-69
2022/05/13 02:02:08;;;;;;;7.57;2.10;;;;;;;;;;5002163;28;20037;-68
2022/05/13 02:04:33;;;;;;;7.65;1.90;;;;;;;;;;5007410;28;20034;-69
2022/05/13 02:06:58;;;;;;;5.95;2.40;;;;;;;;;;5007162;28;20034;-69
2022/05/13 02:09:24;;;;;;;8.15;2.13;;;;;;;;;;5002880;28;20025;-68
2022/05/13 02:11:50;;;;;;;5.20;1.95;;;;;;;;;;5004086;28;20120;-69
2022/05/13 02:14:17;;;;;;;4.70;1.98;;;;;;;;;;5022435;28;20113;-69
2022/05/13 02:16:42;;;;;;;8.30;2.03;;;;;;;;;;5002121;28;20041;-69
2022/05/13 02:19:08;;;;;;;4.05;1.90;;;;;;;;;;5004487;28;20033;-68
2022/05/13 02:21:35;;;;;;;6.60;1.98;;;;;;;;;;5007284;28;20581;-68
2022/05/13 02:24:00;;;;;;;5.50;1.83;;;;;;;;;;5005341;28;20042;-69
2022/05/13 02:26:25;;;;;;;8.68;2.13;;;;;;;;;;5007573;28;20108;-68
2022/05/13 02:28:51;;;;;;;5.07;1.73;;;;;;;;;;5008923;28;20088;-69
2022/05/13 02:31:16;;;;;;;9.02;2.20;;;;;;;;;;5010057;28;20026;-68
2022/05/13 02:33:42;;;;;;;7.80;1.80;;;;;;;;;;5010304;28;20061;-69
2022/05/13 02:36:08;;;;;;;8.18;2.30;;;;;;;;;;5010599;28;20030;-68
2022/05/13 02:38:35;;;;;;;8.13;2.15;;;;;;;;;;5010572;28;20045;-68
2022/05/13 02:41:13;;;;;;;7.40;1.80;;;;;;;;;;5004993;28;20500;-69
2022/05/13 02:43:50;;;;;;;8.13;2.03;;;;;;;;;;5009966;28;20133;-69
2022/05/13 02:46:25;;;;;;;5.65;1.85;;;;;;;;;;5010369;28;20116;-68
2022/05/13 02:48:51;;;;;;;8.15;1.88;;;;;;;;;;5010241;28;20045;-68
2022/05/13 02:51:17;;;;;;;10.95;2.28;;;;;;;;;;5008391;28;20027;-69
2022/05/13 02:53:43;;;;;;;7.90;1.90;;;;;;;;;;5007212;28;20038;-69
2022/05/13 02:56:08;;;;;;;7.90;2.00;;;;;;;;;;5006190;28;20061;-68
2022/05/13 02:58:38;;;;;;;8.43;2.20;;;;;;;;;;5010245;28;20042;-68
2022/05/13 03:01:05;;;;;;;7.15;2.03;;;;;;;;;;5009796;28;20045;-68
2022/05/13 03:03:30;;;;;;;8.85;1.90;;;;;;;;;;5009454;28;20059;-68
2022/05/13 03:05:57;;;;;;;10.30;2.10;;;;;;;;;;5010420;28;20053;-68
2022/05/13 03:08:22;;;;;;;5.85;1.90;;;;;;;;;;5010365;28;20045;-68
2022/05/13 03:10:47;;;;;;;12.52;2.08;;;;;;;;;;5005947;28;20034;-68
2022/05/13 03:13:18;;;;;;;5.72;2.30;;;;;;;;;;5009637;28;20070;-68
2022/05/13 03:15:44;;;;;;;7.68;2.78;;;;;;;;;;5009550;28;20057;-68
2022/05/13 03:18:09;;;;;;;9.63;2.03;;;;;;;;;;5002196;28;20471;-68
2022/05/13 03:20:34;;;;;;;6.45;1.83;;;;;;;;;;5009616;28;20143;-69
2022/05/13 03:23:01;;;;;;;10.60;2.33;;;;;;;;;;5009134;28;20064;-69
2022/05/13 03:25:27;;;;;;;5.72;2.10;;;;;;;;;;5005334;28;20699;-68
2022/05/13 03:27:52;;;;;;;8.10;2.42;;;;;;;;;;5001229;28;20537;-69
2022/05/13 03:30:20;;;;;;;5.72;1.88;;;;;;;;;;5010027;28;20033;-68
2022/05/13 03:32:45;;;;;;;8.18;2.20;;;;;;;;;;5003360;28;20096;-68
2022/05/13 03:35:14;;;;;;;5.30;2.30;;;;;;;;;;5008959;28;20037;-69
2022/05/13 03:37:39;;;;;;;8.60;2.15;;;;;;;;;;4996428;28;20042;-68
2022/05/13 03:40:05;;;;;;;7.13;2.28;;;;;;;;;;5004459;28;20049;-68
2022/05/13 03:42:31;;;;;;;5.05;2.20;;;;;;;;;;5008807;28;20064;-69
2022/05/13 03:44:57;;;;;;;7.20;2.08;;;;;;;;;;5009793;28;20064;-69
2022/05/13 03:47:22;;;;;;;7.93;2.15;;;;;;;;;;5007865;28;20061;-69
2022/05/13 03:49:47;;;;;;;10.18;2.58;;;;;;;;;;5006716;28;20418;-68
2022/05/13 03:52:13;;;;;;;12.57;2.40;;;;;;;;;;5007639;28;20132;-68
2022/05/13 03:54:39;;;;;;;8.23;2.33;;;;;;;;;;5008758;28;20038;-68
2022/05/13 03:57:06;;;;;;;10.65;2.17;;;;;;;;;;5023436;28;20054;-68
2022/05/13 03:59:32;;;;;;;6.45;2.58;;;;;;;;;;5004078;28;20069;-68
2022/05/13 04:01:58;;;;;;;8.48;2.60;;;;;;;;;;5008783;28;20034;-69
2022/05/13 04:04:24;;;;;;;8.20;2.47;;;;;;;;;;5007492;28;20057;-68
2022/05/13 04:09:35;;;;;;;7.43;2.30;;;;;;;;;;5004297;28;20037;-68
2022/05/13 04:17:29;;;;;;;;;;;;;;;;;;5004872;28;20056;-68
2022/05/13 04:19:55;;;;;;;8.57;2.25;;;;;;;;;;5008411;28;20362;-69
2022/05/13 04:22:21;;;;;;;10.85;2.25;;;;;;;;;;5001843;28;20037;-68
2022/05/13 04:24:46;;;;;;;5.80;2.25;;;;;;;;;;5002370;28;20041;-68
2022/05/13 04:27:11;;;;;;;12.77;2.78;;;;;;;;;;5002088;28;20044;-68
2022/05/13 04:29:37;;;;;;;16.33;3.15;;;;;;;;;;5008372;28;20037;-69
2022/05/13 04:32:03;;;;;;;7.80;2.45;;;;;;;;;;5008149;28;20049;-69
2022/05/13 04:34:29;;;;;;;7.53;2.60;;;;;;;;;;4999961;28;20038;-68
2022/05/13 04:36:54;;;;;;;12.88;2.45;;;;;;;;;;5004114;28;20027;-68
2022/05/13 04:39:19;;;;;;;12.77;3.13;;;;;;;;;;5008528;28;20034;-68
2022/05/13 04:44:29;;;;;;;6.93;2.72;;;;;;;;;;5007765;28;20161;-68
2022/05/13 04:46:54;;;;;;;7.95;2.78;;;;;;;;;;5006614;28;20511;-68
2022/05/13 04:49:19;;;;;;;9.65;3.17;;;;;;;;;;5005711;28;20038;-69
2022/05/13 04:51:44;;;;;;;10.57;2.63;;;;;;;;;;5007806;28;20041;-68
2022/05/13 04:54:10;;;;;;;9.85;2.97;;;;;;;;;;5008261;28;20472;-69
2022/05/13 04:56:36;;;;;;;8.05;2.75;;;;;;;;;;5004936;28;20041;-68
2022/05/13 04:59:02;;;;;;;9.70;2.95;;;;;;;;;;5007048;28;20069;-68
2022/05/13 05:01:28;;;;;;;8.70;2.92;;;;;;;;;;5002852;28;20034;-68
2022/05/13 05:03:53;;;;;;;9.45;3.05;;;;;;;;;;4997798;28;20030;-69
2022/05/13 05:06:20;;;;;;;11.35;2.90;;;;;;;;;;5008280;28;20045;-68
2022/05/13 05:08:46;;;;;;;8.52;2.97;;;;;;;;;;5007450;28;20045;-68
2022/05/13 05:11:13;;;;;;;12.20;2.35;;;;;;;;;;5003093;28;20125;-69
2022/05/13 05:13:42;;;;;;;6.85;2.80;;;;;;;;;;5021800;28;20034;-68
2022/05/13 05:16:08;;;;;;;11.00;3.35;;;;;;;;;;5000522;28;20030;-70
2022/05/13 05:18:35;;;;;;;9.65;3.15;;;;;;;;;;4990774;28;20032;-68
2022/05/13 05:21:00;;;;;;;14.00;3.17;;;;;;;;;;5003061;28;20029;-68
2022/05/13 05:23:32;;;;;;;8.07;2.90;;;;;;;;;;5020644;28;20455;-68
2022/05/13 05:25:57;;;;;;;8.77;2.80;;;;;;;;;;5002271;28;20041;-68
2022/05/13 05:28:23;;;;;;;13.95;3.45;;;;;;;;;;5007433;28;20057;-68
2022/05/13 05:30:48;;;;;;;10.30;2.83;;;;;;;;;;5007340;28;20036;-68
2022/05/13 05:33:14;;;;;;;10.35;3.05;;;;;;;;;;5007506;28;20106;-69
2022/05/13 05:35:41;;;;;;;16.67;4.50;;;;;;;;;;5000016;28;20042;-68
2022/05/13 05:38:07;;;;;;;10.18;3.00;;;;;;;;;;5006307;28;20041;-69
2022/05/13 05:40:34;;;;;;;8.60;4.05;;;;;;;;;;5007338;28;20088;-68
2022/05/13 05:43:07;;;;;;;7.28;2.83;;;;;;;;;;5007668;28;20026;-69
2022/05/13 05:45:33;;;;;;;;;;;;;;;;;;5004506;28;20084;-69
2022/05/13 05:47:58;;;;;;;14.13;2.83;;;;;;;;;;5005341;28;19944;-69
2022/05/13 05:50:25;;;;;;;11.20;3.10;;;;;;;;;;4995917;28;20088;-69
2022/05/13 05:52:50;;;;;;;10.60;3.13;;;;;;;;;;5002046;28;20076;-69
2022/05/13 05:58:11;;;;;;;8.75;3.40;;;;;;;;;;5011245;28;20088;-69
2022/05/13 06:00:40;;;;;;;12.50;3.47;;;;;;;;;;5004181;28;20025;-69
2022/05/13 06:03:05;;;;;;;12.75;3.45;;;;;;;;;;5011186;28;20028;-69
2022/05/13 06:05:31;;;;;;;14.88;3.92;;;;;;;;;;5000998;28;20231;-67
2022/05/13 06:07:58;;;;;;;10.38;3.75;;;;;;;;;;5004927;28;20050;-67
2022/05/13 06:10:25;;;;;;;13.98;4.25;;;;;;;;;;5008954;28;20056;-67
2022/05/13 06:12:50;;;;;;;9.60;4.00;;;;;;;;;;5004624;28;20029;-67
2022/05/13 06:15:17;;;;;;;11.45;4.18;;;;;;;;;;5011085;28;20022;-67
2022/05/13 06:17:44;;;;;;;12.10;4.22;;;;;;;;;;5000517;28;20056;-68
2022/05/13 06:20:10;;;;;;;9.93;3.75;;;;;;;;;;5009120;28;20557;-69
2022/05/13 06:22:36;;;;;;;11.13;3.70;;;;;;;;;;5010760;28;20511;-68
2022/05/13 06:25:02;;;;;;;13.50;4.18;;;;;;;;;;5005987;28;20053;-70
2022/05/13 06:27:28;;;;;;;11.50;4.25;;;;;;;;;;5008030;28;20446;-68
2022/05/13 06:29:53;;;;;;;13.32;4.13;;;;;;;;;;5003808;28;20573;-67
2022/05/13 06:32:19;;;;;;;10.07;3.78;;;;;;;;;;5005836;28;20042;-70
2022/05/13 06:34:44;;;;;;;14.85;3.90;;;;;;;;;;4999777;28;20096;-67
2022/05/13 06:37:09;;;;;;;12.63;4.20;;;;;;;;;;4997769;28;20073;-67
2022/05/13 06:39:35;;;;;;;9.13;3.75;;;;;;;;;;4990383;28;20053;-67
2022/05/13 06:42:00;;;;;;;10.23;3.63;;;;;;;;;;4991586;28;20090;-67
2022/05/13 06:44:25;;;;;;;11.77;3.70;;;;;;;;;;4990720;28;20061;-68
2022/05/13 06:46:51;;;;;;;14.45;3.97;;;;;;;;;;4991090;28;20042;-67
2022/05/13 06:49:16;;;;;;;8.68;3.45;;;;;;;;;;4999315;28;20034;-67
2022/05/13 06:51:42;;;;;;;9.25;3.63;;;;;;;;;;5006473;28;20054;-67
2022/05/13 06:54:11;;;;;;;9.77;3.67;;;;;;;;;;5009628;28;20045;-68
2022/05/13 06:56:39;;;;;;;12.77;3.65;;;;;;;;;;5005657;28;20088;-67
2022/05/13 06:59:05;;;;;;;11.32;3.60;;;;;;;;;;5000200;28;20045;-67
2022/05/13 07:01:32;;;;;;;10.40;3.80;;;;;;;;;;5006605;28;20436;-67
2022/05/13 07:03:58;;;;;;;11.85;3.65;;;;;;;;;;5009561;28;20038;-68
2022/05/13 07:06:23;;;;;;;12.65;3.75;;;;;;;;;;5001704;28;20033;-68
2022/05/13 07:08:52;;;;;;;13.02;4.15;;;;;;;;;;4994114;28;20046;-67
2022/05/13 07:11:18;;;;;;;10.50;3.35;;;;;;;;;;4996154;28;20363;-68
2022/05/13 07:13:44;;;;;;;12.45;4.00;;;;;;;;;;4994055;28;20523;-68
2022/05/13 07:16:10;;;;;;;9.70;3.63;;;;;;;;;;4994993;28;20046;-68
2022/05/13 07:18:36;;;;;;;11.70;3.28;;;;;;;;;;4994305;28;20606;-68
2022/05/13 07:21:02;;;;;;;8.02;3.35;;;;;;;;;;5002186;28;20049;-68
2022/05/13 07:23:29;;;;;;;7.82;3.30;;;;;;;;;;5003270;28;20034;-68
2022/05/13 07:25:55;;;;;;;9.63;3.40;;;;;;;;;;5003028;28;20080;-68
2022/05/13 07:28:20;;;;;;;9.07;3.42;;;;;;;;;;5001315;28;20046;-68
2022/05/13 07:30:46;;;;;;;13.85;3.10;;;;;;;;;;5002635;28;21027;-68
2022/05/13 07:33:13;;;;;;;10.70;3.47;;;;;;;;;;5015065;28;20533;-67
2022/05/13 07:35:39;;;;;;;9.13;3.70;;;;;;;;;;4996911;28;20438;-68
2022/05/13 07:38:06;;;;;;;9.27;4.05;;;;;;;;;;5000132;28;20064;-68
2022/05/13 07:43:14;;;;;;;;;;;;;;;;;;4997533;28;20045;-68
2022/05/13 07:45:40;;;;;;;7.75;3.17;;;;;;;;;;5001337;28;19914;-68
2022/05/13 07:48:06;;;;;;;9.85;2.95;;;;;;;;;;5000031;28;20041;-68
2022/05/13 07:50:31;;;;;;;8.02;3.03;;;;;;;;;;4995644;28;20042;-68
2022/05/13 07:52:56;;;;;;;9.90;3.50;;;;;;;;;;4987813;28;20161;-68
2022/05/13 07:55:22;;;;;;;10.15;3.25;;;;;;;;;;4987770;28;20026;-68
2022/05/13 07:57:47;;;;;;;8.07;2.63;;;;;;;;;;4993935;28;20434;-69
2022/05/13 08:00:25;;;;;;;9.18;2.95;;;;;;;;;;4990228;28;20482;-69
2022/05/13 08:02:56;;;;;;;7.30;3.00;;;;;;;;;;5000859;28;20037;-67
2022/05/13 08:05:22;;;;;;;8.40;3.28;;;;;;;;;;5003607;28;20049;-68
2022/05/13 08:07:48;;;;;;;6.95;2.40;;;;;;;;;;5003257;28;20088;-68
2022/05/13 08:10:14;;;;;;;9.75;2.90;;;;;;;;;;4997244;28;20050;-68
2022/05/13 08:12:39;;;;;;;6.75;2.80;;;;;;;;;;5003902;28;20459;-68
2022/05/13 08:15:05;;;;;;;5.80;2.45;;;;;;;;;;4988558;28;20069;-68
2022/05/13 08:17:34;;;;;;;8.10;3.15;;;;;;;;;;4993400;28;20045;-69
2022/05/13 08:20:00;;;;;;;5.75;2.67;;;;;;;;;;4991065;28;20129;-68
2022/05/13 08:22:25;;;;;;;5.38;2.28;;;;;;;;;;4994778;28;20114;-68
2022/05/13 08:24:50;;;;;;;3.72;2.00;;;;;;;;;;4993699;28;20780;-68
2022/05/13 08:27:16;;;;;;;3.80;1.80;;;;;;;;;;4988242;28;20042;-68
2022/05/13 08:29:41;;;;;;;4.15;1.92;;;;;;;;;;4991005;28;20042;-68
2022/05/13 08:32:07;;;;;;;4.90;1.77;;;;;;;;;;4996748;28;20072;-69
2022/05/13 08:34:32;;;;;;;3.45;1.70;;;;;;;;;;5002744;28;20100;-69
2022/05/13 08:36:58;;;;;;;4.28;1.95;;;;;;;;;;4999691;28;20049;-69
2022/05/13 08:39:23;;;;;;;5.53;1.80;;;;;;;;;;4991683;28;20104;-69
2022/05/13 08:42:00;;;;;;;7.80;2.33;;;;;;;;;;4996264;28;20069;-69
2022/05/13 08:44:26;;;;;;;5.65;1.90;;;;;;;;;;4987048;28;20039;-67
2022/05/13 08:47:12;;;;;;;5.90;2.20;;;;;;;;;;4995709;28;20045;-67
2022/05/13 08:49:52;;;;;;;6.80;2.03;;;;;;;;;;5000941;28;20041;-67
2022/05/13 08:53:06;;;;;;;2.22;1.65;;;;;;;;;;5020258;28;20029;-68
2022/05/13 08:55:36;;;;;;;6.88;2.05;;;;;;;;;;5000791;28;20481;-67
2022/05/13 08:58:05;;;;;;;7.00;2.05;;;;;;;;;;5001155;28;20041;-69
2022/05/13 09:00:35;;;;;;;11.32;2.28;;;;;;;;;;4995494;28;20029;-68
2022/05/13 09:03:00;;;;;;;5.47;2.30;;;;;;;;;;4995192;28;20037;-70
2022/05/13 09:05:29;;;;;;;8.00;2.10;;;;;;;;;;5002074;28;20053;-69
2022/05/13 09:07:55;;;;;;;5.45;2.25;;;;;;;;;;5001810;28;20076;-69
2022/05/13 09:10:25;;;;;;;8.23;2.40;;;;;;;;;;5004593;28;20045;-69
2022/05/13 09:13:00;;;;;;;5.00;2.72;;;;;;;;;;4998374;28;20522;-69
2022/05/13 09:15:36;;;;;;;13.90;2.50;;;;;;;;;;4999863;28;20084;-71
2022/05/13 09:18:17;;;;;;;4.03;2.33;;;;;;;;;;4997771;28;20070;-68
2022/05/13 09:20:50;;;;;;;4.75;2.00;;;;;;;;;;4990861;28;20103;-68
2022/05/13 09:23:17;;;;;;;4.82;2.20;;;;;;;;;;5001420;28;20116;-70
2022/05/13 09:26:03;;;;;;;4.03;2.22;;;;;;;;;;5006373;28;20034;-70
2022/05/13 09:28:32;;;;;;;5.50;2.10;;;;;;;;;;4992583;28;20535;-70
2022/05/13 09:31:28;;;;;;;11.70;2.55;;;;;;;;;;5005240;28;20052;-69
2022/05/13 09:33:53;;;;;;;6.47;2.20;;;;;;;;;;4990679;28;20046;-68
2022/05/13 09:36:19;;;;;;;7.75;2.25;;;;;;;;;;5003606;28;20049;-69
2022/05/13 09:38:47;;;;;;;3.03;1.90;;;;;;;;;;4998602;28;20042;-69
2022/05/13 09:41:22;;;;;;;4.40;1.90;;;;;;;;;;4996614;28;20061;-69
2022/05/13 09:43:52;;;;;;;4.60;1.77;;;;;;;;;;4997671;28;20021;-69
2022/05/13 09:46:38;;;;;;;7.82;2.33;;;;;;;;;;5002567;28;20125;-70
2022/05/13 09:49:10;;;;;;;6.70;2.28;;;;;;;;;;4997877;28;20099;-69
2022/05/13 09:51:51;;;;;;;6.15;1.80;;;;;;;;;;4997802;28;20152;-68
2022/05/13 09:54:24;;;;;;;3.53;2.15;;;;;;;;;;4990560;28;20034;-69
2022/05/13 09:56:55;;;;;;;6.07;2.45;;;;;;;;;;5002496;28;20034;-69
2022/05/13 09:59:25;;;;;;;4.10;2.28;;;;;;;;;;5005795;28;20057;-70
2022/05/13 10:01:51;;;;;;;4.20;2.10;;;;;;;;;;5001169;28;20030;-70
2022/05/13 10:04:25;;;;;;;5.32;2.45;;;;;;;;;;5002071;28;20042;-68
2022/05/13 10:07:04;;;;;;;4.90;1.70;;;;;;;;;;5000374;28;20074;-69
2022/05/13 10:15:17;;;;;;;5.50;2.03;;;;;;;;;;5004175;28;19956;-68
2022/05/13 10:17:49;;;;;;;7.35;2.25;;;;;;;;;;5004744;28;20034;-69
2022/05/13 10:20:26;;;;;;;5.30;2.33;;;;;;;;;;5005042;28;20041;-67
2022/05/13 10:23:00;;;;;;;6.63;2.17;;;;;;;;;;4985476;28;20030;-69
2022/05/13 10:25:31;;;;;;;3.90;1.90;;;;;;;;;;4990467;28;20041;-68
2022/05/13 10:28:10;;;;;;;7.07;2.28;;;;;;;;;;5002493;28;20085;-69
2022/05/13 10:30:41;;;;;;;4.47;2.10;;;;;;;;;;4988875;28;20513;-68
2022/05/13 10:33:18;;;;;;;7.00;2.03;;;;;;;;;;5004358;28;20049;-69
2022/05/13 10:36:16;;;;;;;5.80;1.80;;;;;;;;;;5004723;28;20042;-69
2022/05/13 10:38:46;;;;;;;5.00;1.60;;;;;;;;;;5000826;28;20157;-68
2022/05/13 10:41:36;;;;;;;4.90;2.00;;;;;;;;;;4996867;28;20027;-68
2022/05/13 10:44:26;;;;;;;4.63;2.03;;;;;;;;;;4989137;28;20030;-68
2022/05/13 10:47:24;;;;;;;3.90;2.20;;;;;;;;;;4993041;28;20671;-67
2022/05/13 10:49:49;;;;;;;5.65;2.20;;;;;;;;;;5002078;28;20046;-68
2022/05/13 10:52:27;;;;;;;3.65;2.22;;;;;;;;;;5002993;28;20447;-67
2022/05/13 10:55:03;;;;;;;7.75;2.30;;;;;;;;;;5002653;28;20082;-68
2022/05/13 10:58:03;;;;;;;6.07;2.17;;;;;;;;;;5001192;28;20052;-68
2022/05/13 11:00:37;;;;;;;9.23;2.53;;;;;;;;;;4998618;28;20129;-68
2022/05/13 11:03:24;;;;;;;3.92;2.25;;;;;;;;;;5004954;28;20048;-68
2022/05/13 11:06:28;;;;;;;5.15;2.40;;;;;;;;;;5008141;28;20044;-67
2022/05/13 11:09:04;;;;;;;6.03;2.28;;;;;;;;;;4995980;28;20026;-68
2022/05/13 11:11:32;;;;;;;7.80;2.60;;;;;;;;;;5003211;28;20117;-68
2022/05/13 11:14:18;;;;;;;8.40;2.47;;;;;;;;;;5004324;28;20021;-68
2022/05/13 11:17:02;;;;;;;6.47;2.47;;;;;;;;;;5015366;28;20892;-68
2022/05/13 11:19:45;;;;;;;;;;;;;;;;;;4997944;28;20046;-68
2022/05/13 11:22:21;;;;;;;4.68;1.83;;;;;;;;;;4999259;28;19976;-68
2022/05/13 11:27:43;;;;;;;3.28;1.67;;;;;;;;;;5000921;28;20851;-68
2022/05/13 11:30:18;;;;;;;4.95;2.47;;;;;;;;;;5002702;28;20072;-68
2022/05/13 11:32:46;;;;;;;3.60;1.85;;;;;;;;;;5001170;28;20041;-68
2022/05/13 11:35:35;;;;;;;6.57;2.00;;;;;;;;;;5005539;28;20087;-68
2022/05/13 11:38:08;;;;;;;6.68;2.45;;;;;;;;;;5002501;28;20026;-67
2022/05/13 11:40:39;;;;;;;4.37;1.93;;;;;;;;;;4988825;28;20038;-68
2022/05/13 11:43:46;;;;;;;5.60;2.03;;;;;;;;;;5008185;28;20419;-68
2022/05/13 11:47:01;;;;;;;3.58;1.90;;;;;;;;;;5002121;28;20042;-68
2022/05/13 11:49:31;;;;;;;8.23;1.90;;;;;;;;;;5001454;28;20057;-68
2022/05/13 11:52:23;;;;;;;3.33;1.80;;;;;;;;;;4991180;28;20084;-68
2022/05/13 11:55:08;;;;;;;7.07;2.72;;;;;;;;;;5002070;28;20033;-68
2022/05/13 11:57:43;;;;;;;4.15;2.15;;;;;;;;;;5005926;28;20064;-67
2022/05/13 12:00:35;;;;;;;8.90;2.40;;;;;;;;;;4987216;28;20042;-68
2022/05/13 12:03:09;;;;;;;4.95;2.08;;;;;;;;;;4990267;28;20039;-68
2022/05/13 12:05:48;;;;;;;4.20;1.70;;;;;;;;;;5001004;28;20526;-68
2022/05/13 12:08:42;;;;;;;3.10;1.48;;;;;;;;;;4987034;28;20054;-68
2022/05/13 12:11:28;;;;;;;5.43;1.80;;;;;;;;;;5002325;28;20062;-67
2022/05/13 12:14:20;;;;;;;2.65;1.75;;;;;;;;;;5007626;28;20522;-67
2022/05/13 12:17:01;;;;;;;4.03;1.90;;;;;;;;;;5001359;28;20546;-67
2022/05/13 12:19:42;;;;;;;6.97;1.88;;;;;;;;;;4992200;28;20527;-69
2022/05/13 12:22:29;;;;;;;4.90;1.85;;;;;;;;;;4992184;28;20041;-70
2022/05/13 12:25:09;;;;;;;4.25;1.52;;;;;;;;;;5003604;28;20060;-68
2022/05/13 12:28:00;;;;;;;5.85;1.70;;;;;;;;;;5002708;28;20634;-70
2022/05/13 12:30:39;;;;;;;5.97;1.77;;;;;;;;;;4994398;28;20096;-68
2022/05/13 12:33:20;;;;;;;4.13;1.80;;;;;;;;;;4984886;28;20120;-70
2022/05/13 12:39:10;;;;;;;5.68;1.60;;;;;;;;;;5004538;28;20092;-66
2022/05/13 12:41:42;;;;;;;4.30;1.73;;;;;;;;;;5005980;28;20111;-68
2022/05/13 12:44:13;;;;;;;6.80;1.60;;;;;;;;;;5002074;28;20077;-68
2022/05/13 12:46:46;;;;;;;3.72;1.60;;;;;;;;;;5006315;28;20415;-69
2022/05/13 12:49:25;;;;;;;4.50;2.05;;;;;;;;;;5005798;28;20056;-67
2022/05/13 12:52:29;;;;;;;5.82;1.63;;;;;;;;;;5005942;28;20593;-68
2022/05/13 12:55:06;;;;;;;;;;;;;;;;;;5005685;28;20161;-69
2022/05/13 12:57:40;;;;;;;5.95;1.50;;;;;;;;;;5006490;28;20390;-67
2022/05/13 13:00:19;;;;;;;4.85;1.50;;;;;;;;;;4999299;28;20034;-68
2022/05/13 13:02:49;;;;;;;3.65;1.52;;;;;;;;;;4986288;28;20046;-69
2022/05/13 13:05:27;;;;;;;7.85;2.20;;;;;;;;;;5002739;28;20902;-69
2022/05/13 13:07:54;;;;;;;6.63;1.67;;;;;;;;;;5005987;28;20032;-68
2022/05/13 13:10:22;;;;;;;6.43;2.00;;;;;;;;;;5004828;28;20037;-69
2022/05/13 13:13:10;;;;;;;6.10;1.70;;;;;;;;;;5006234;28;20046;-69
2022/05/13 13:15:58;;;;;;;6.63;1.63;;;;;;;;;;4998841;28;20141;-67
2022/05/13 13:18:33;;;;;;;7.10;1.70;;;;;;;;;;4996294;28;20047;-66
2022/05/13 13:21:07;;;;;;;8.65;1.75;;;;;;;;;;4986177;28;20046;-68
2022/05/13 13:23:35;;;;;;;4.30;1.75;;;;;;;;;;5002155;28;20046;-68
2022/05/13 13:26:03;;;;;;;8.13;1.60;;;;;;;;;;4988396;28;20054;-69
2022/05/13 13:28:32;;;;;;;6.00;1.58;;;;;;;;;;4999946;28;20574;-70
2022/05/13 13:31:09;;;;;;;9.02;1.70;;;;;;;;;;4985623;28;20042;-68
2022/05/13 13:33:43;;;;;;;4.55;1.75;;;;;;;;;;4997026;28;20085;-71
2022/05/13 13:36:15;;;;;;;4.55;1.80;;;;;;;;;;4993353;28;20046;-69
2022/05/13 13:38:47;;;;;;;7.63;1.98;;;;;;;;;;4997056;28;20120;-68
2022/05/13 13:41:31;;;;;;;4.65;1.50;;;;;;;;;;4994160;28;20145;-71
2022/05/13 13:43:59;;;;;;;4.75;1.52;;;;;;;;;;4993058;28;20030;-67
2022/05/13 13:46:30;;;;;;;3.97;1.60;;;;;;;;;;5002582;28;20037;-68
2022/05/13 13:48:57;;;;;;;4.88;2.20;;;;;;;;;;4996208;28;20121;-68
2022/05/13 13:51:26;;;;;;;5.85;1.88;;;;;;;;;;4988015;28;20050;-69
2022/05/13 13:54:00;;;;;;;6.07;1.70;;;;;;;;;;4999866;28;20526;-68
2022/05/13 13:56:26;;;;;;;11.98;2.20;;;;;;;;;;5000756;28;20057;-68
2022/05/13 13:59:08;;;;;;;3.20;1.58;;;;;;;;;;5002345;28;20088;-66
2022/05/13 14:01:36;;;;;;;4.65;2.08;;;;;;;;;;5004983;28;20045;-67
2022/05/13 14:04:13;;;;;;;4.13;1.35;;;;;;;;;;5005387;28;20068;-68
2022/05/13 14:06:41;;;;;;;5.32;1.80;;;;;;;;;;5004820;28;20056;-68
2022/05/13 14:09:16;;;;;;;5.05;1.90;;;;;;;;;;5004253;28;20068;-68
2022/05/13 14:11:41;;;;;;;5.60;1.50;;;;;;;;;;4995195;28;20042;-66
2022/05/13 14:14:08;;;;;;;4.43;1.70;;;;;;;;;;4994171;28;20037;-67
2022/05/13 14:16:43;;;;;;;5.28;1.75;;;;;;;;;;4998562;28;20435;-66
2022/05/13 14:19:19;;;;;;;5.82;1.60;;;;;;;;;;5004224;28;20427;-67
2022/05/13 14:22:10;;;;;;;6.20;1.70;;;;;;;;;;5002937;28;20038;-67
2022/05/13 14:24:36;;;;;;;2.60;1.27;;;;;;;;;;4998061;28;20038;-67
2022/05/13 14:27:23;;;;;;;7.97;1.90;;;;;;;;;;5003244;28;20412;-67
2022/05/13 14:29:49;;;;;;;4.90;1.58;;;;;;;;;;5000871;28;20050;-67
2022/05/13 14:32:17;;;;;;;7.93;1.70;;;;;;;;;;5007308;28;20052;-66
2022/05/13 14:34:55;;;;;;;5.53;1.70;;;;;;;;;;5009490;28;20056;-66
2022/05/13 14:37:30;;;;;;;4.22;1.55;;;;;;;;;;4998111;28;20037;-67
2022/05/13 14:39:57;;;;;;;4.93;2.08;;;;;;;;;;4993478;28;20041;-67
2022/05/13 14:42:33;;;;;;;4.80;1.77;;;;;;;;;;4998256;28;20069;-67
2022/05/13 14:45:13;;;;;;;5.45;1.70;;;;;;;;;;4999586;28;20073;-67
2022/05/13 14:47:39;;;;;;;7.22;2.00;;;;;;;;;;4991394;28;20128;-67
2022/05/13 14:50:04;;;;;;;5.95;1.90;;;;;;;;;;4993492;28;20117;-67
2022/05/13 14:52:53;;;;;;;11.05;2.50;;;;;;;;;;4990610;28;20714;-67
2022/05/13 14:55:28;;;;;;;6.03;1.60;;;;;;;;;;4998528;28;20917;-67
2022/05/13 14:57:55;;;;;;;9.45;2.92;;;;;;;;;;4988890;28;20531;-67
2022/05/13 15:00:24;;;;;;;8.15;2.55;;;;;;;;;;4990867;28;20512;-70
2022/05/13 15:02:52;;;;;;;5.45;2.03;;;;;;;;;;4999134;28;20084;-70
2022/05/13 15:05:36;;;;;;;8.88;1.80;;;;;;;;;;4996939;28;20096;-70
2022/05/13 15:08:25;;;;;;;3.38;1.48;;;;;;;;;;4999864;28;20034;-69
2022/05/13 15:10:50;;;;;;;3.58;1.50;;;;;;;;;;5007280;28;20411;-70
2022/05/13 15:13:15;;;;;;;4.43;1.63;;;;;;;;;;5008799;28;20511;-69
2022/05/13 15:15:42;;;;;;;3.97;1.50;;;;;;;;;;5006792;28;20049;-70
2022/05/13 15:18:16;;;;;;;3.33;1.30;;;;;;;;;;4994816;28;20715;-69
2022/05/13 15:20:42;;;;;;;4.65;1.60;;;;;;;;;;5005755;28;20416;-69
2022/05/13 15:23:08;;;;;;;3.30;1.35;;;;;;;;;;5023269;28;20057;-70
2022/05/13 15:25:40;;;;;;;7.13;1.40;;;;;;;;;;5006427;28;20534;-70
2022/05/13 15:28:05;;;;;;;6.60;1.50;;;;;;;;;;5007362;28;20431;-70
2022/05/13 15:30:31;;;;;;;2.72;1.40;;;;;;;;;;4992816;28;20041;-68
2022/05/13 15:32:56;;;;;;;4.00;1.85;;;;;;;;;;5007839;28;20045;-68
2022/05/13 15:35:22;;;;;;;3.75;1.42;;;;;;;;;;4992161;28;20052;-69